createdAt,value
2023-02-08T00:00:54.008Z,11.60
2023-02-08T00:01:54.017Z,11.10
2023-02-08T00:02:54.011Z,11.60
2023-02-08T00:03:54.108Z,11.40
2023-02-08T00:04:54.915Z,11.30
2023-02-08T00:05:53.954Z,11.50
2023-02-08T00:06:53.926Z,11.50
2023-02-08T00:07:53.924Z,11.20
2023-02-08T00:08:53.908Z,11.40
2023-02-08T00:09:53.937Z,12.40
2023-02-08T00:10:53.881Z,12.30
2023-02-08T00:11:53.879Z,11.80
2023-02-08T00:12:56.408Z,11.40
2023-02-08T00:13:53.861Z,11.60
2023-02-08T00:14:53.836Z,11.60
2023-02-08T00:15:53.862Z,11.40
2023-02-08T00:16:53.816Z,12.10
2023-02-08T00:17:54.813Z,12.10
2023-02-08T00:18:53.797Z,12.60
2023-02-08T00:19:53.822Z,11.90
2023-02-08T00:20:54.422Z,11.60
2023-02-08T00:21:53.776Z,11.70
2023-02-08T00:22:53.756Z,12.30
2023-02-08T00:23:54.819Z,11.60
2023-02-08T00:24:53.946Z,12.10
2023-02-08T00:25:54.416Z,11.60
2023-02-08T00:26:53.708Z,11.60
2023-02-08T00:27:53.774Z,11.60
2023-02-08T00:28:53.683Z,11.30
2023-02-08T00:29:54.421Z,11.50
2023-02-08T00:30:53.711Z,12.10
2023-02-08T00:31:53.696Z,12.50
2023-02-08T00:32:53.638Z,11.90
2023-02-08T00:33:53.647Z,11.50
2023-02-08T00:34:53.619Z,12.00
2023-02-08T00:35:53.622Z,12.00
2023-02-08T00:36:53.570Z,12.20
2023-02-08T00:37:54.615Z,12.90
2023-02-08T00:38:53.561Z,11.80
2023-02-08T00:39:53.587Z,11.40
2023-02-08T00:40:53.567Z,11.70
2023-02-08T00:41:54.428Z,11.60
2023-02-08T00:42:53.521Z,11.80
2023-02-08T00:43:53.519Z,12.70
2023-02-08T00:44:53.512Z,12.90
2023-02-08T00:45:53.500Z,13.30
2023-02-08T00:46:53.505Z,13.70
2023-02-08T00:47:53.481Z,13.10
2023-02-08T00:48:53.454Z,11.80
2023-02-08T00:49:53.498Z,13.00
2023-02-08T00:50:53.437Z,12.20
2023-02-08T00:51:53.442Z,12.80
2023-02-08T00:52:53.425Z,12.40
2023-02-08T00:53:53.403Z,12.00
2023-02-08T00:54:54.453Z,12.80
2023-02-08T00:55:53.394Z,12.20
2023-02-08T00:56:53.359Z,12.50
2023-02-08T00:57:53.357Z,13.10
2023-02-08T00:58:53.435Z,12.20
2023-02-08T00:59:55.905Z,12.00
2023-02-08T01:00:53.442Z,13.20
2023-02-08T01:01:53.356Z,12.20
2023-02-08T01:02:53.312Z,11.80
2023-02-08T01:03:53.290Z,11.60
2023-02-08T01:04:53.278Z,12.30
2023-02-08T01:05:53.268Z,11.60
2023-02-08T01:06:54.440Z,11.20
2023-02-08T01:07:53.265Z,11.80
2023-02-08T01:08:53.245Z,12.80
2023-02-08T01:10:14.231Z,12.60
2023-02-08T01:10:53.216Z,12.40
2023-02-08T01:11:53.212Z,12.80
2023-02-08T01:12:55.641Z,13.20
2023-02-08T01:13:53.182Z,12.50
2023-02-08T01:14:53.169Z,13.10
2023-02-08T01:15:53.200Z,12.50
2023-02-08T01:16:53.144Z,12.50
2023-02-08T01:17:53.139Z,13.60
2023-02-08T01:18:53.444Z,12.70
2023-02-08T01:19:53.105Z,13.40
2023-02-08T01:20:53.095Z,12.50
2023-02-08T01:21:53.094Z,13.00
2023-02-08T01:22:53.076Z,12.40
2023-02-08T01:23:53.114Z,13.60
2023-02-08T01:25:07.906Z,13.50
2023-02-08T01:25:53.052Z,12.60
2023-02-08T01:26:55.909Z,12.60
2023-02-08T01:27:53.057Z,12.60
2023-02-08T01:28:53.012Z,12.90
2023-02-08T01:29:54.027Z,13.20
2023-02-08T01:30:53.043Z,12.90
2023-02-08T01:31:52.984Z,11.90
2023-02-08T01:32:52.969Z,12.70
2023-02-08T01:33:52.998Z,13.40
2023-02-08T01:34:52.975Z,12.90
2023-02-08T01:35:52.946Z,12.50
2023-02-08T01:36:53.903Z,11.80
2023-02-08T01:37:52.915Z,12.70
2023-02-08T01:38:52.901Z,12.90
2023-02-08T01:39:52.903Z,12.30
2023-02-08T01:40:52.880Z,12.00
2023-02-08T01:41:52.881Z,12.40
2023-02-08T01:42:52.862Z,12.10
2023-02-08T01:43:52.836Z,12.30
2023-02-08T01:44:52.853Z,12.90
2023-02-08T01:45:52.857Z,12.50
2023-02-08T01:46:52.808Z,12.70
2023-02-08T01:47:52.820Z,12.90
2023-02-08T01:48:52.780Z,13.30
2023-02-08T01:49:52.775Z,12.50
2023-02-08T01:50:52.776Z,12.20
2023-02-08T01:51:52.784Z,12.30
2023-02-08T01:52:54.455Z,12.40
2023-02-08T01:53:52.721Z,12.80
2023-02-08T01:54:53.753Z,12.60
2023-02-08T01:55:52.724Z,12.60
2023-02-08T01:56:52.702Z,12.10
2023-02-08T01:57:52.700Z,12.20
2023-02-08T01:58:52.669Z,12.20
2023-02-08T01:59:53.401Z,12.10
2023-02-08T02:00:53.431Z,13.10
2023-02-08T02:01:52.632Z,12.30
2023-02-08T02:02:52.625Z,12.90
2023-02-08T02:03:52.641Z,12.20
2023-02-08T02:04:52.596Z,12.60
2023-02-08T02:05:53.405Z,12.10
2023-02-08T02:06:53.409Z,12.40
2023-02-08T02:07:52.924Z,12.70
2023-02-08T02:08:53.415Z,11.90
2023-02-08T02:09:53.400Z,12.30
2023-02-08T02:10:52.535Z,12.00
2023-02-08T02:11:52.539Z,11.90
2023-02-08T02:12:52.526Z,11.80
2023-02-08T02:13:52.516Z,11.90
2023-02-08T02:14:53.408Z,11.60
2023-02-08T02:15:52.484Z,12.10
2023-02-08T02:16:52.469Z,12.00
2023-02-08T02:17:52.457Z,11.90
2023-02-08T02:18:52.451Z,12.10
2023-02-08T02:19:52.429Z,12.40
2023-02-08T02:20:53.494Z,11.50
2023-02-08T02:21:52.423Z,11.30
2023-02-08T02:22:52.511Z,12.20
2023-02-08T02:23:52.387Z,11.50
2023-02-08T02:24:52.378Z,11.30
2023-02-08T02:25:52.368Z,11.60
2023-02-08T02:26:52.363Z,11.80
2023-02-08T02:27:52.416Z,11.30
2023-02-08T02:28:52.342Z,11.50
2023-02-08T02:29:52.333Z,12.20
2023-02-08T02:30:52.392Z,11.70
2023-02-08T02:31:52.310Z,12.00
2023-02-08T02:32:52.310Z,12.20
2023-02-08T02:33:52.268Z,12.30
2023-02-08T02:34:52.271Z,12.80
2023-02-08T02:35:52.252Z,12.00
2023-02-08T02:36:53.304Z,12.90
2023-02-08T02:37:52.227Z,13.20
2023-02-08T02:38:52.238Z,13.10
2023-02-08T02:39:52.209Z,12.70
2023-02-08T02:40:52.200Z,13.30
2023-02-08T02:41:52.201Z,12.50
2023-02-08T02:42:52.174Z,12.60
2023-02-08T02:43:52.187Z,13.60
2023-02-08T02:44:52.158Z,13.70
2023-02-08T02:45:53.253Z,13.30
2023-02-08T02:46:52.422Z,12.70
2023-02-08T02:47:52.914Z,13.30
2023-02-08T02:48:52.110Z,13.90
2023-02-08T02:49:52.121Z,13.60
2023-02-08T02:50:58.896Z,14.00
2023-02-08T02:51:52.081Z,13.90
2023-02-08T02:52:52.065Z,13.90
2023-02-08T02:53:53.139Z,14.20
2023-02-08T02:54:52.051Z,13.60
2023-02-08T02:55:52.040Z,13.40
2023-02-08T02:56:54.084Z,13.40
2023-02-08T02:57:52.016Z,13.80
2023-02-08T02:58:54.960Z,13.00
2023-02-08T02:59:52.020Z,13.30
2023-02-08T03:00:52.919Z,13.20
2023-02-08T03:01:51.972Z,13.50
2023-02-08T03:03:12.967Z,13.10
2023-02-08T03:03:51.981Z,13.20
2023-02-08T03:04:51.977Z,13.40
2023-02-08T03:05:51.928Z,13.00
2023-02-08T03:06:51.968Z,12.60
2023-02-08T03:07:51.912Z,13.00
2023-02-08T03:08:51.910Z,13.00
2023-02-08T03:09:51.898Z,13.60
2023-02-08T03:10:51.886Z,13.90
2023-02-08T03:11:51.867Z,14.10
2023-02-08T03:12:51.884Z,13.20
2023-02-08T03:13:51.848Z,13.40
2023-02-08T03:14:51.854Z,13.40
2023-02-08T03:15:51.855Z,13.60
2023-02-08T03:16:51.866Z,15.80
2023-02-08T03:17:52.386Z,14.80
2023-02-08T03:18:52.405Z,14.90
2023-02-08T03:19:51.791Z,14.90
2023-02-08T03:20:51.765Z,14.40
2023-02-08T03:21:51.790Z,14.20
2023-02-08T03:22:51.752Z,15.50
2023-02-08T03:23:51.738Z,14.60
2023-02-08T03:24:51.732Z,14.50
2023-02-08T03:25:51.722Z,13.40
2023-02-08T03:26:51.733Z,13.30
2023-02-08T03:27:51.697Z,13.30
2023-02-08T03:28:51.679Z,12.90
2023-02-08T03:29:51.683Z,14.60
2023-02-08T03:30:52.554Z,13.60
2023-02-08T03:31:52.851Z,13.10
2023-02-08T03:32:51.659Z,14.00
2023-02-08T03:33:51.633Z,13.70
2023-02-08T03:34:51.616Z,13.70
2023-02-08T03:35:51.638Z,14.30
2023-02-08T03:36:51.602Z,13.90
2023-02-08T03:37:51.594Z,13.60
2023-02-08T03:38:51.581Z,13.20
2023-02-08T03:39:51.588Z,13.80
2023-02-08T03:40:51.562Z,13.30
2023-02-08T03:41:51.546Z,13.20
2023-02-08T03:42:51.539Z,13.10
2023-02-08T03:43:51.536Z,13.50
2023-02-08T03:44:51.521Z,13.30
2023-02-08T03:45:51.542Z,13.50
2023-02-08T03:46:51.502Z,13.00
2023-02-08T03:47:51.514Z,13.40
2023-02-08T03:48:51.482Z,13.40
2023-02-08T03:49:52.397Z,13.10
2023-02-08T03:50:51.457Z,13.10
2023-02-08T03:51:51.538Z,13.30
2023-02-08T03:52:51.436Z,12.90
2023-02-08T03:53:51.437Z,12.80
2023-02-08T03:54:51.405Z,12.80
2023-02-08T03:55:51.393Z,12.50
2023-02-08T03:56:51.411Z,12.90
2023-02-08T03:57:51.385Z,12.10
2023-02-08T03:58:51.362Z,13.70
2023-02-08T03:59:51.445Z,13.00
2023-02-08T04:00:52.345Z,13.40
2023-02-08T04:01:51.324Z,12.50
2023-02-08T04:02:51.369Z,12.60
2023-02-08T04:03:51.323Z,12.40
2023-02-08T04:04:51.303Z,12.40
2023-02-08T04:05:51.307Z,13.20
2023-02-08T04:06:51.287Z,13.20
2023-02-08T04:07:51.275Z,12.80
2023-02-08T04:08:51.902Z,13.10
2023-02-08T04:09:51.237Z,13.00
2023-02-08T04:10:51.227Z,12.80
2023-02-08T04:11:51.892Z,12.10
2023-02-08T04:12:51.237Z,13.30
2023-02-08T04:13:51.200Z,13.40
2023-02-08T04:14:51.202Z,13.40
2023-02-08T04:15:51.231Z,12.80
2023-02-08T04:16:51.160Z,13.10
2023-02-08T04:17:51.151Z,12.90
2023-02-08T04:18:51.138Z,13.20
2023-02-08T04:19:51.423Z,13.50
2023-02-08T04:20:51.115Z,12.90
2023-02-08T04:21:51.124Z,13.10
2023-02-08T04:22:51.892Z,12.90
2023-02-08T04:23:53.140Z,13.70
2023-02-08T04:24:51.092Z,13.50
2023-02-08T04:25:51.099Z,13.10
2023-02-08T04:26:51.077Z,12.70
2023-02-08T04:27:51.114Z,13.50
2023-02-08T04:28:51.081Z,13.30
2023-02-08T04:29:51.029Z,12.80
2023-02-08T04:30:51.091Z,12.70
2023-02-08T04:31:51.458Z,13.10
2023-02-08T04:32:51.008Z,12.90
2023-02-08T04:33:51.993Z,13.10
2023-02-08T04:34:50.973Z,13.10
2023-02-08T04:35:50.973Z,13.70
2023-02-08T04:36:50.971Z,12.90
2023-02-08T04:37:50.957Z,12.80
2023-02-08T04:38:50.937Z,13.00
2023-02-08T04:39:51.896Z,13.70
2023-02-08T04:40:50.906Z,12.60
2023-02-08T04:41:51.893Z,12.70
2023-02-08T04:42:50.891Z,12.20
2023-02-08T04:43:50.894Z,13.10
2023-02-08T04:44:50.870Z,13.50
2023-02-08T04:45:50.851Z,12.50
2023-02-08T04:46:52.932Z,13.30
2023-02-08T04:47:50.825Z,13.80
2023-02-08T04:48:50.821Z,13.50
2023-02-08T04:49:50.838Z,12.60
2023-02-08T04:50:50.795Z,12.80
2023-02-08T04:51:50.805Z,13.40
2023-02-08T04:52:50.800Z,13.30
2023-02-08T04:53:51.824Z,13.30
2023-02-08T04:54:50.808Z,13.60
2023-02-08T04:55:50.738Z,12.80
2023-02-08T04:56:53.397Z,13.60
2023-02-08T04:57:50.740Z,13.60
2023-02-08T04:58:50.717Z,13.40
2023-02-08T04:59:50.713Z,13.10
2023-02-08T05:00:52.399Z,12.90
2023-02-08T05:01:50.794Z,13.50
2023-02-08T05:02:50.676Z,13.40
2023-02-08T05:03:50.657Z,12.70
2023-02-08T05:04:50.711Z,13.10
2023-02-08T05:05:50.633Z,13.60
2023-02-08T05:06:50.646Z,13.40
2023-02-08T05:07:50.621Z,13.70
2023-02-08T05:08:51.885Z,13.10
2023-02-08T05:09:50.602Z,13.60
2023-02-08T05:10:50.951Z,12.60
2023-02-08T05:11:50.573Z,13.20
2023-02-08T05:12:51.591Z,12.80
2023-02-08T05:13:50.546Z,12.90
2023-02-08T05:14:51.388Z,13.00
2023-02-08T05:15:50.584Z,13.80
2023-02-08T05:16:50.539Z,13.60
2023-02-08T05:17:50.508Z,13.10
2023-02-08T05:18:50.507Z,13.00
2023-02-08T05:19:50.481Z,13.60
2023-02-08T05:20:50.469Z,13.50
2023-02-08T05:21:50.482Z,12.30
2023-02-08T05:22:50.447Z,13.20
2023-02-08T05:23:50.478Z,13.20
2023-02-08T05:24:50.433Z,13.90
2023-02-08T05:25:51.390Z,13.40
2023-02-08T05:26:50.418Z,13.90
2023-02-08T05:27:50.428Z,13.10
2023-02-08T05:28:50.391Z,12.90
2023-02-08T05:29:50.388Z,13.50
2023-02-08T05:30:50.410Z,13.40
2023-02-08T05:31:50.898Z,13.00
2023-02-08T05:32:50.346Z,14.30
2023-02-08T05:33:50.327Z,13.40
2023-02-08T05:34:50.331Z,13.10
2023-02-08T05:35:50.331Z,13.40
2023-02-08T05:36:50.305Z,13.70
2023-02-08T05:37:50.292Z,12.90
2023-02-08T05:38:50.352Z,13.10
2023-02-08T05:39:50.280Z,13.70
2023-02-08T05:40:50.254Z,12.80
2023-02-08T05:41:51.293Z,14.00
2023-02-08T05:42:50.245Z,13.10
2023-02-08T05:43:50.223Z,13.10
2023-02-08T05:44:50.207Z,12.90
2023-02-08T05:45:50.254Z,13.70
2023-02-08T05:46:50.218Z,13.60
2023-02-08T05:47:50.205Z,13.30
2023-02-08T05:48:50.186Z,13.90
2023-02-08T05:49:50.150Z,13.30
2023-02-08T05:50:50.145Z,13.60
2023-02-08T05:51:50.136Z,13.50
2023-02-08T05:52:50.120Z,13.80
2023-02-08T05:53:50.141Z,13.20
2023-02-08T05:54:50.108Z,13.30
2023-02-08T05:55:51.330Z,13.40
2023-02-08T05:56:50.086Z,13.60
2023-02-08T05:57:50.107Z,12.50
2023-02-08T05:58:50.056Z,13.40
2023-02-08T05:59:50.051Z,13.20
2023-02-08T06:00:50.042Z,13.40
2023-02-08T06:01:50.051Z,13.90
2023-02-08T06:02:50.068Z,12.80
2023-02-08T06:03:50.026Z,14.10
2023-02-08T06:04:50.013Z,13.80
2023-02-08T06:05:49.990Z,13.30
2023-02-08T06:06:50.004Z,13.90
2023-02-08T06:07:49.962Z,13.50
2023-02-08T06:08:49.966Z,13.40
2023-02-08T06:09:49.943Z,13.50
2023-02-08T06:10:49.968Z,13.40
2023-02-08T06:11:49.967Z,13.50
2023-02-08T06:12:49.925Z,13.00
2023-02-08T06:13:49.904Z,13.80
2023-02-08T06:14:49.916Z,13.80
2023-02-08T06:15:49.885Z,14.00
2023-02-08T06:16:49.980Z,13.70
2023-02-08T06:17:49.855Z,13.30
2023-02-08T06:18:49.861Z,14.10
2023-02-08T06:19:49.850Z,13.40
2023-02-08T06:20:49.821Z,13.00
2023-02-08T06:21:49.817Z,13.30
2023-02-08T06:22:49.839Z,13.10
2023-02-08T06:23:49.798Z,12.50
2023-02-08T06:24:49.793Z,13.00
2023-02-08T06:25:49.772Z,12.70
2023-02-08T06:26:49.783Z,12.60
2023-02-08T06:27:49.880Z,13.10
2023-02-08T06:28:49.795Z,12.40
2023-02-08T06:29:49.729Z,13.40
2023-02-08T06:30:50.741Z,12.20
2023-02-08T06:31:49.891Z,13.10
2023-02-08T06:32:49.701Z,12.60
2023-02-08T06:33:49.709Z,12.20
2023-02-08T06:34:49.682Z,12.30
2023-02-08T06:35:50.708Z,13.00
2023-02-08T06:36:49.685Z,13.40
2023-02-08T06:37:49.656Z,12.80
2023-02-08T06:38:51.276Z,12.80
2023-02-08T06:39:49.637Z,12.80
2023-02-08T06:40:49.630Z,13.20
2023-02-08T06:41:49.616Z,13.20
2023-02-08T06:42:49.601Z,13.00
2023-02-08T06:43:49.655Z,12.70
2023-02-08T06:44:55.103Z,13.00
2023-02-08T06:45:50.666Z,12.90
2023-02-08T06:46:49.581Z,12.60
2023-02-08T06:47:50.579Z,12.00
2023-02-08T06:48:49.536Z,13.30
2023-02-08T06:49:49.533Z,13.10
2023-02-08T06:50:49.511Z,13.30
2023-02-08T06:51:49.569Z,12.90
2023-02-08T06:52:49.499Z,12.60
2023-02-08T06:53:49.494Z,12.50
2023-02-08T06:54:49.467Z,13.20
2023-02-08T06:55:49.456Z,12.40
2023-02-08T06:56:49.464Z,12.40
2023-02-08T06:57:49.457Z,12.20
2023-02-08T06:58:49.433Z,13.70
2023-02-08T06:59:49.431Z,13.80
2023-02-08T07:00:49.422Z,13.00
2023-02-08T07:01:49.410Z,13.80
2023-02-08T07:02:49.387Z,13.50
2023-02-08T07:03:49.398Z,14.80
2023-02-08T07:04:49.378Z,13.70
2023-02-08T07:06:03.775Z,13.20
2023-02-08T07:06:50.349Z,13.50
2023-02-08T07:07:49.332Z,13.90
2023-02-08T07:08:49.323Z,13.00
2023-02-08T07:09:50.376Z,13.80
2023-02-08T07:10:49.302Z,12.90
2023-02-08T07:11:49.303Z,13.30
2023-02-08T07:12:49.284Z,13.20
2023-02-08T07:13:49.249Z,12.80
2023-02-08T07:14:49.278Z,13.60
2023-02-08T07:15:49.293Z,13.60
2023-02-08T07:16:49.276Z,12.80
2023-02-08T07:17:50.259Z,12.90
2023-02-08T07:18:49.210Z,13.10
2023-02-08T07:19:49.208Z,13.30
2023-02-08T07:20:49.218Z,13.60
2023-02-08T07:21:49.193Z,13.50
2023-02-08T07:22:49.196Z,12.30
2023-02-08T07:23:49.185Z,13.30
2023-02-08T07:24:49.156Z,13.40
2023-02-08T07:25:49.141Z,13.20
2023-02-08T07:26:49.145Z,13.40
2023-02-08T07:27:49.137Z,13.00
2023-02-08T07:28:49.116Z,13.50
2023-02-08T07:29:49.098Z,14.10
2023-02-08T07:30:49.127Z,13.50
2023-02-08T07:31:49.163Z,13.60
2023-02-08T07:32:49.072Z,13.90
2023-02-08T07:33:49.064Z,13.00
2023-02-08T07:34:49.070Z,13.20
2023-02-08T07:35:49.033Z,13.90
2023-02-08T07:36:49.042Z,14.00
2023-02-08T07:37:49.063Z,12.90
2023-02-08T07:38:49.016Z,12.60
2023-02-08T07:39:48.991Z,13.20
2023-02-08T07:40:49.025Z,12.40
2023-02-08T07:41:48.974Z,13.10
2023-02-08T07:42:48.989Z,13.40
2023-02-08T07:43:50.006Z,12.40
2023-02-08T07:44:48.993Z,12.90
2023-02-08T07:45:50.005Z,12.30
2023-02-08T07:46:48.922Z,13.20
2023-02-08T07:47:48.938Z,12.90
2023-02-08T07:48:48.923Z,13.20
2023-02-08T07:49:48.887Z,12.60
2023-02-08T07:50:48.901Z,13.30
2023-02-08T07:51:48.870Z,13.60
2023-02-08T07:52:48.865Z,13.50
2023-02-08T07:53:48.855Z,13.40
2023-02-08T07:54:48.834Z,13.30
2023-02-08T07:55:49.885Z,12.90
2023-02-08T07:56:48.829Z,13.60
2023-02-08T07:57:48.811Z,13.20
2023-02-08T07:58:48.831Z,13.60
2023-02-08T07:59:48.809Z,14.00
2023-02-08T08:00:48.782Z,13.60
2023-02-08T08:01:48.852Z,12.80
2023-02-08T08:02:48.769Z,12.80
2023-02-08T08:03:48.885Z,12.50
2023-02-08T08:04:48.719Z,12.30
2023-02-08T08:05:51.382Z,13.40
2023-02-08T08:06:48.705Z,13.40
2023-02-08T08:07:48.701Z,13.30
2023-02-08T08:08:48.692Z,13.50
2023-02-08T08:09:48.683Z,13.00
2023-02-08T08:10:48.659Z,12.90
2023-02-08T08:11:48.654Z,12.80
2023-02-08T08:12:48.636Z,12.70
2023-02-08T08:13:48.661Z,12.80
2023-02-08T08:14:48.625Z,14.30
2023-02-08T08:15:48.616Z,15.70
2023-02-08T08:16:48.604Z,17.70
2023-02-08T08:17:48.621Z,18.40
2023-02-08T08:18:48.576Z,18.80
2023-02-08T08:19:48.594Z,21.20
2023-02-08T08:20:48.563Z,19.40
2023-02-08T08:21:48.580Z,18.50
2023-02-08T08:22:48.560Z,18.60
2023-02-08T08:23:48.528Z,18.40
2023-02-08T08:24:48.511Z,20.20
2023-02-08T08:25:48.514Z,21.30
2023-02-08T08:26:48.492Z,22.10
2023-02-08T08:27:48.520Z,15.90
2023-02-08T08:28:48.532Z,16.00
2023-02-08T08:29:48.456Z,14.20
2023-02-08T08:30:48.573Z,12.20
2023-02-08T08:31:48.500Z,12.10
2023-02-08T08:32:48.432Z,12.30
2023-02-08T08:33:48.426Z,11.60
2023-02-08T08:34:48.425Z,12.40
2023-02-08T08:35:48.421Z,11.30
2023-02-08T08:36:48.399Z,11.90
2023-02-08T08:37:48.375Z,11.40
2023-02-08T08:38:48.395Z,11.20
2023-02-08T08:39:48.358Z,10.50
2023-02-08T08:40:48.335Z,10.60
2023-02-08T08:41:48.332Z,10.50
2023-02-08T08:42:49.359Z,11.20
2023-02-08T08:43:48.326Z,9.70
2023-02-08T08:44:48.320Z,9.70
2023-02-08T08:45:49.555Z,10.20
2023-02-08T08:46:48.270Z,10.20
2023-02-08T08:47:48.275Z,9.60
2023-02-08T08:48:48.274Z,9.80
2023-02-08T08:49:48.261Z,9.40
2023-02-08T08:50:48.254Z,8.70
2023-02-08T08:51:48.239Z,8.90
2023-02-08T08:52:48.200Z,9.20
2023-02-08T08:53:48.207Z,9.10
2023-02-08T08:54:48.207Z,9.80
2023-02-08T08:55:48.173Z,9.10
2023-02-08T08:56:48.184Z,8.90
2023-02-08T08:57:48.163Z,9.30
2023-02-08T08:58:48.142Z,9.10
2023-02-08T08:59:48.135Z,9.10
2023-02-08T09:00:48.164Z,8.50
2023-02-08T09:01:48.156Z,9.10
2023-02-08T09:02:48.092Z,9.10
2023-02-08T09:03:48.093Z,9.00
2023-02-08T09:04:48.071Z,8.60
2023-02-08T09:05:48.072Z,8.50
2023-02-08T09:06:48.061Z,8.80
2023-02-08T09:07:48.099Z,9.20
2023-02-08T09:08:50.257Z,8.60
2023-02-08T09:09:48.019Z,8.60
2023-02-08T09:10:48.003Z,8.90
2023-02-08T09:11:48.007Z,8.60
2023-02-08T09:12:48.030Z,8.50
2023-02-08T09:13:47.981Z,8.90
2023-02-08T09:14:47.997Z,9.00
2023-02-08T09:15:48.019Z,8.30
2023-02-08T09:16:47.937Z,8.00
2023-02-08T09:17:47.957Z,8.40
2023-02-08T09:18:47.956Z,8.30
2023-02-08T09:19:49.433Z,8.50
2023-02-08T09:20:48.373Z,8.20
2023-02-08T09:21:48.930Z,7.70
2023-02-08T09:22:48.863Z,8.60
2023-02-08T09:23:48.892Z,8.60
2023-02-08T09:24:48.352Z,7.80
2023-02-08T09:25:50.182Z,7.90
2023-02-08T09:26:48.373Z,7.80
2023-02-08T09:27:48.385Z,7.60
2023-02-08T09:28:50.354Z,8.10
2023-02-08T09:29:49.389Z,8.10
2023-02-08T09:30:49.393Z,8.40
2023-02-08T09:31:50.490Z,7.70
2023-02-08T09:32:50.345Z,7.90
2023-02-08T09:33:50.346Z,8.00
2023-02-08T09:34:50.368Z,7.70
2023-02-08T09:35:50.346Z,7.90
2023-02-08T09:36:49.389Z,7.80
2023-02-08T09:37:50.349Z,7.80
2023-02-08T09:38:50.350Z,7.70
2023-02-08T09:39:50.393Z,7.60
2023-02-08T09:40:50.357Z,7.10
2023-02-08T09:41:49.381Z,7.90
2023-02-08T09:42:49.723Z,7.60
2023-02-08T09:43:47.646Z,7.90
2023-02-08T09:44:47.666Z,7.90
2023-02-08T09:45:59.206Z,7.80
2023-02-08T09:46:49.384Z,7.80
2023-02-08T09:47:47.737Z,7.80
2023-02-08T09:48:47.590Z,7.40
2023-02-08T09:49:47.612Z,7.70
2023-02-08T09:50:47.568Z,8.20
2023-02-08T09:51:47.574Z,7.80
2023-02-08T09:52:47.548Z,7.20
2023-02-08T09:53:47.616Z,7.80
2023-02-08T09:54:47.520Z,6.70
2023-02-08T09:55:47.597Z,7.20
2023-02-08T09:56:47.498Z,6.90
2023-02-08T09:57:47.499Z,7.10
2023-02-08T09:58:47.496Z,7.30
2023-02-08T09:59:47.497Z,6.80
2023-02-08T10:00:47.462Z,7.20
2023-02-08T10:02:08.464Z,7.50
2023-02-08T10:02:47.448Z,6.90
2023-02-08T10:03:47.483Z,6.70
2023-02-08T10:04:47.422Z,6.60
2023-02-08T10:06:08.415Z,7.30
2023-02-08T10:06:49.879Z,6.80
2023-02-08T10:07:47.392Z,7.00
2023-02-08T10:08:47.387Z,6.70
2023-02-08T10:09:47.396Z,6.10
2023-02-08T10:10:47.364Z,6.60
2023-02-08T10:11:47.368Z,6.10
2023-02-08T10:12:47.350Z,6.20
2023-02-08T10:13:47.328Z,6.20
2023-02-08T10:14:47.375Z,6.10
2023-02-08T10:16:08.363Z,6.10
2023-02-08T10:16:47.318Z,5.40
2023-02-08T10:17:47.283Z,6.40
2023-02-08T10:18:47.273Z,6.00
2023-02-08T10:19:47.259Z,6.50
2023-02-08T10:20:47.269Z,5.90
2023-02-08T10:21:47.237Z,5.90
2023-02-08T10:22:47.232Z,5.60
2023-02-08T10:23:47.215Z,5.80
2023-02-08T10:24:47.218Z,6.00
2023-02-08T10:25:47.225Z,5.80
2023-02-08T10:26:47.237Z,6.70
2023-02-08T10:27:47.224Z,7.20
2023-02-08T10:28:47.170Z,6.20
2023-02-08T10:29:47.165Z,5.60
2023-02-08T10:30:47.487Z,5.80
2023-02-08T10:31:47.438Z,5.40
2023-02-08T10:32:47.152Z,5.60
2023-02-08T10:33:47.106Z,6.00
2023-02-08T10:34:47.138Z,5.70
2023-02-08T10:35:47.085Z,6.10
2023-02-08T10:36:47.080Z,6.70
2023-02-08T10:37:47.099Z,6.80
2023-02-08T10:38:47.310Z,6.10
2023-02-08T10:39:47.050Z,5.60
2023-02-08T10:40:47.042Z,5.40
2023-02-08T10:41:47.022Z,5.30
2023-02-08T10:42:47.010Z,5.50
2023-02-08T10:43:47.041Z,5.70
2023-02-08T10:44:48.440Z,6.20
2023-02-08T10:45:47.043Z,5.20
2023-02-08T10:46:46.993Z,5.40
2023-02-08T10:47:46.954Z,5.20
2023-02-08T10:48:46.954Z,5.40
2023-02-08T10:49:46.937Z,5.10
2023-02-08T10:50:46.926Z,5.10
2023-02-08T10:51:46.932Z,4.80
2023-02-08T10:52:46.924Z,5.20
2023-02-08T10:53:46.882Z,5.00
2023-02-08T10:54:46.875Z,4.60
2023-02-08T10:55:46.877Z,5.00
2023-02-08T10:56:46.860Z,5.10
2023-02-08T10:57:46.839Z,5.20
2023-02-08T10:58:46.835Z,5.00
2023-02-08T10:59:46.829Z,4.80
2023-02-08T11:00:46.847Z,4.70
2023-02-08T11:01:46.816Z,4.80
2023-02-08T11:02:46.794Z,4.60
2023-02-08T11:03:46.811Z,5.20
2023-02-08T11:04:46.810Z,4.90
2023-02-08T11:05:46.751Z,5.30
2023-02-08T11:06:46.736Z,5.10
2023-02-08T11:07:46.730Z,4.60
2023-02-08T11:08:46.727Z,4.70
2023-02-08T11:09:46.705Z,4.90
2023-02-08T11:10:46.711Z,4.90
2023-02-08T11:11:46.707Z,5.10
2023-02-08T11:12:46.668Z,4.60
2023-02-08T11:13:46.661Z,4.60
2023-02-08T11:14:47.588Z,4.50
2023-02-08T11:15:46.675Z,4.90
2023-02-08T11:16:46.655Z,4.40
2023-02-08T11:17:46.629Z,4.20
2023-02-08T11:18:46.611Z,4.90
2023-02-08T11:19:46.586Z,4.20
2023-02-08T11:20:46.586Z,4.60
2023-02-08T11:21:46.593Z,4.20
2023-02-08T11:22:46.613Z,4.50
2023-02-08T11:23:46.554Z,4.60
2023-02-08T11:24:46.540Z,4.40
2023-02-08T11:25:46.539Z,4.50
2023-02-08T11:26:46.527Z,4.40
2023-02-08T11:27:46.511Z,4.20
2023-02-08T11:28:46.513Z,4.60
2023-02-08T11:29:46.484Z,4.30
2023-02-08T11:30:46.502Z,4.30
2023-02-08T11:31:46.529Z,5.10
2023-02-08T11:32:46.464Z,4.30
2023-02-08T11:33:46.447Z,4.40
2023-02-08T11:34:46.443Z,4.10
2023-02-08T11:35:46.420Z,4.90
2023-02-08T11:36:46.411Z,4.70
2023-02-08T11:37:46.425Z,4.50
2023-02-08T11:38:46.388Z,4.70
2023-02-08T11:39:46.379Z,4.60
2023-02-08T11:40:46.370Z,4.30
2023-02-08T11:41:46.354Z,4.30
2023-02-08T11:42:46.358Z,4.60
2023-02-08T11:43:47.399Z,4.30
2023-02-08T11:44:46.328Z,4.50
2023-02-08T11:45:46.372Z,4.20
2023-02-08T11:46:46.315Z,4.30
2023-02-08T11:47:46.316Z,4.20
2023-02-08T11:48:46.271Z,3.80
2023-02-08T11:49:46.849Z,3.80
2023-02-08T11:50:46.247Z,3.90
2023-02-08T11:51:46.261Z,3.80
2023-02-08T11:52:46.250Z,4.20
2023-02-08T11:53:46.237Z,4.20
2023-02-08T11:54:46.229Z,4.30
2023-02-08T11:55:46.227Z,4.00
2023-02-08T11:56:46.199Z,4.10
2023-02-08T11:57:46.190Z,4.60
2023-02-08T11:58:46.182Z,3.90
2023-02-08T11:59:46.161Z,3.80
2023-02-08T12:00:46.149Z,3.80
2023-02-08T12:01:46.160Z,3.80
2023-02-08T12:02:46.172Z,3.90
2023-02-08T12:03:46.235Z,4.00
2023-02-08T12:04:46.103Z,4.20
2023-02-08T12:05:46.100Z,4.00
2023-02-08T12:06:46.096Z,3.60
2023-02-08T12:07:46.073Z,3.80
2023-02-08T12:08:46.057Z,3.80
2023-02-08T12:09:46.094Z,3.80
2023-02-08T12:10:46.036Z,3.60
2023-02-08T12:11:46.040Z,3.70
2023-02-08T12:12:46.014Z,3.70
2023-02-08T12:13:47.882Z,3.70
2023-02-08T12:14:45.987Z,3.90
2023-02-08T12:15:57.862Z,3.60
2023-02-08T12:16:46.984Z,3.30
2023-02-08T12:17:45.979Z,3.60
2023-02-08T12:18:45.958Z,3.60
2023-02-08T12:19:45.998Z,3.70
2023-02-08T12:20:45.943Z,3.50
2023-02-08T12:21:45.914Z,4.10
2023-02-08T12:22:45.914Z,3.90
2023-02-08T12:23:45.905Z,3.30
2023-02-08T12:24:45.904Z,3.40
2023-02-08T12:25:46.851Z,3.60
2023-02-08T12:26:45.881Z,3.70
2023-02-08T12:27:45.854Z,4.50
2023-02-08T12:28:46.355Z,3.60
2023-02-08T12:29:48.020Z,3.40
2023-02-08T12:30:46.001Z,3.70
2023-02-08T12:31:45.883Z,3.40
2023-02-08T12:32:46.897Z,3.70
2023-02-08T12:33:45.807Z,3.40
2023-02-08T12:34:46.346Z,3.50
2023-02-08T12:36:02.804Z,3.90
2023-02-08T12:36:46.755Z,3.10
2023-02-08T12:37:45.769Z,3.80
2023-02-08T12:38:45.868Z,3.80
2023-02-08T12:39:45.719Z,3.50
2023-02-08T12:40:45.696Z,3.50
2023-02-08T12:41:46.343Z,3.40
2023-02-08T12:42:45.674Z,3.80
2023-02-08T12:43:45.688Z,3.60
2023-02-08T12:44:45.662Z,3.60
2023-02-08T12:45:45.659Z,4.10
2023-02-08T12:46:45.637Z,4.00
2023-02-08T12:47:58.223Z,4.00
2023-02-08T12:48:47.332Z,4.00
2023-02-08T12:49:45.616Z,3.70
2023-02-08T12:50:45.593Z,3.80
2023-02-08T12:51:48.369Z,3.80
2023-02-08T12:52:46.579Z,3.60
2023-02-08T12:53:45.553Z,3.40
2023-02-08T12:54:45.547Z,3.00
2023-02-08T12:55:45.769Z,3.60
2023-02-08T12:56:53.588Z,3.10
2023-02-08T12:57:46.506Z,3.10
2023-02-08T12:58:45.509Z,3.00
2023-02-08T12:59:45.499Z,2.80
2023-02-08T13:00:52.333Z,3.10